createdAt,value
2023-03-05T00:01:19.774Z,3.30
2023-03-05T00:03:46.681Z,3.85
2023-03-05T00:06:13.348Z,3.90
2023-03-05T00:08:40.074Z,3.22
2023-03-05T00:11:09.765Z,4.07
2023-03-05T00:13:37.659Z,3.58
2023-03-05T00:16:14.385Z,2.88
2023-03-05T00:18:41.046Z,3.25
2023-03-05T00:21:23.029Z,3.03
2023-03-05T00:23:50.904Z,3.22
2023-03-05T00:26:19.590Z,3.40
2023-03-05T00:28:49.996Z,2.95
2023-03-05T00:31:21.744Z,3.30
2023-03-05T00:33:59.616Z,3.25
2023-03-05T00:36:27.100Z,4.85
2023-03-05T00:38:54.031Z,3.30
2023-03-05T00:41:20.715Z,2.78
2023-03-05T00:43:48.074Z,3.55
2023-03-05T00:46:14.694Z,2.83
2023-03-05T00:48:41.297Z,4.07
2023-03-05T00:51:09.321Z,3.40
2023-03-05T00:53:35.921Z,3.22
2023-03-05T00:56:02.398Z,3.20
2023-03-05T00:58:29.545Z,2.88
2023-03-05T01:01:00.423Z,2.83
2023-03-05T01:03:27.237Z,3.20
2023-03-05T01:08:20.678Z,3.17
2023-03-05T01:10:47.314Z,2.80
2023-03-05T01:13:13.761Z,3.33
2023-03-05T01:15:40.408Z,3.45
2023-03-05T01:18:06.877Z,3.63
2023-03-05T01:20:33.682Z,3.33
2023-03-05T01:25:28.808Z,2.95
2023-03-05T01:27:55.272Z,3.13
2023-03-05T01:30:21.854Z,3.10
2023-03-05T01:32:48.304Z,3.10
2023-03-05T01:35:20.629Z,3.20
2023-03-05T01:37:47.818Z,3.70
2023-03-05T01:40:17.468Z,3.45
2023-03-05T01:42:58.131Z,3.28
2023-03-05T01:45:24.690Z,4.65
2023-03-05T01:47:51.259Z,3.20
2023-03-05T01:50:22.800Z,3.38
2023-03-05T01:52:56.654Z,3.63
2023-03-05T01:55:25.960Z,3.53
2023-03-05T01:57:57.734Z,3.35
2023-03-05T02:00:31.947Z,3.58
2023-03-05T02:03:02.995Z,4.25
2023-03-05T02:05:32.830Z,3.63
2023-03-05T02:08:01.153Z,3.55
2023-03-05T02:10:34.486Z,3.33
2023-03-05T02:13:04.799Z,4.03
2023-03-05T02:15:32.665Z,3.05
2023-03-05T02:17:59.448Z,4.20
2023-03-05T02:22:53.755Z,3.42
2023-03-05T02:25:28.871Z,3.50
2023-03-05T02:28:08.100Z,3.65
2023-03-05T02:30:35.537Z,3.75
2023-03-05T02:33:02.602Z,3.35
2023-03-05T02:35:29.092Z,3.65
2023-03-05T02:37:55.656Z,4.65
2023-03-05T02:40:22.187Z,3.70
2023-03-05T02:42:49.192Z,3.50
2023-03-05T02:45:16.016Z,4.38
2023-03-05T02:50:12.143Z,4.35
2023-03-05T02:52:38.888Z,3.95
2023-03-05T02:57:32.077Z,4.03
2023-03-05T02:59:58.600Z,4.28
2023-03-05T03:02:25.078Z,3.80
2023-03-05T03:04:51.548Z,4.00
2023-03-05T03:07:18.305Z,3.58
2023-03-05T03:12:12.223Z,4.13
2023-03-05T03:14:41.381Z,4.18
2023-03-05T03:17:18.144Z,3.92
2023-03-05T03:19:45.570Z,3.72
2023-03-05T03:22:14.477Z,4.05
2023-03-05T03:24:42.300Z,3.63
2023-03-05T03:27:09.289Z,3.80
2023-03-05T03:29:36.256Z,3.47
2023-03-05T03:32:02.855Z,4.78
2023-03-05T03:34:29.401Z,3.95
2023-03-05T03:36:55.877Z,4.13
2023-03-05T03:39:23.666Z,3.92
2023-03-05T03:41:52.992Z,3.78
2023-03-05T03:44:21.056Z,3.63
2023-03-05T03:46:49.675Z,4.15
2023-03-05T03:49:25.189Z,3.67
2023-03-05T03:51:54.188Z,3.45
2023-03-05T03:54:21.949Z,4.15
2023-03-05T03:56:48.470Z,3.55
2023-03-05T03:59:15.112Z,4.15
2023-03-05T04:01:41.667Z,3.83
2023-03-05T04:04:08.911Z,3.58
2023-03-05T04:06:35.568Z,3.85
2023-03-05T04:09:02.050Z,4.72
2023-03-05T04:11:28.514Z,3.35
2023-03-05T04:13:54.993Z,3.88
2023-03-05T04:16:24.152Z,3.63
2023-03-05T04:18:50.609Z,4.30
2023-03-05T04:21:19.645Z,4.05
2023-03-05T04:23:46.396Z,4.25
2023-03-05T04:28:39.256Z,3.92
2023-03-05T04:31:05.999Z,3.63
2023-03-05T04:35:59.472Z,5.20
2023-03-05T04:38:25.961Z,4.20
2023-03-05T04:40:52.472Z,4.32
2023-03-05T04:43:18.958Z,3.97
2023-03-05T04:45:45.589Z,4.70
2023-03-05T04:48:12.833Z,4.05
2023-03-05T04:50:39.436Z,4.03
2023-03-05T04:53:06.533Z,4.32
2023-03-05T04:55:33.084Z,3.85
2023-03-05T04:57:59.573Z,3.85
2023-03-05T05:00:26.183Z,3.90
2023-03-05T05:02:53.416Z,4.10
2023-03-05T05:05:25.220Z,4.88
2023-03-05T05:07:56.364Z,3.85
2023-03-05T05:10:24.486Z,4.18
2023-03-05T05:12:51.328Z,4.63
2023-03-05T05:17:44.479Z,3.90
2023-03-05T05:20:12.475Z,3.67
2023-03-05T05:22:38.950Z,3.40
2023-03-05T05:25:05.829Z,4.22
2023-03-05T05:27:32.516Z,4.20
2023-03-05T05:29:59.115Z,3.95
2023-03-05T05:32:25.851Z,3.70
2023-03-05T05:37:23.354Z,4.03
2023-03-05T05:39:51.047Z,3.50
2023-03-05T05:42:18.779Z,4.25
2023-03-05T05:44:45.480Z,4.10
2023-03-05T05:47:11.938Z,3.67
2023-03-05T05:49:38.475Z,3.97
2023-03-05T05:52:05.865Z,3.90
2023-03-05T05:54:32.605Z,4.18
2023-03-05T05:56:59.070Z,4.97
2023-03-05T05:59:25.518Z,3.60
2023-03-05T06:01:52.033Z,3.83
2023-03-05T06:04:18.630Z,3.90
2023-03-05T06:06:45.070Z,4.40
2023-03-05T06:09:11.603Z,4.30
2023-03-05T06:11:38.626Z,4.65
2023-03-05T06:14:05.416Z,4.50
2023-03-05T06:18:58.998Z,3.78
2023-03-05T06:21:25.736Z,3.20
2023-03-05T06:26:22.008Z,3.97
2023-03-05T06:28:48.717Z,4.22
2023-03-05T06:31:18.123Z,3.67
2023-03-05T06:33:45.388Z,4.43
2023-03-05T06:36:14.610Z,4.00
2023-03-05T06:38:41.538Z,4.05
2023-03-05T06:41:11.822Z,4.00
2023-03-05T06:43:41.074Z,4.30
2023-03-05T06:46:12.204Z,4.15
2023-03-05T06:48:40.213Z,5.20
2023-03-05T06:51:14.706Z,4.55
2023-03-05T06:53:41.542Z,3.85
2023-03-05T06:58:34.538Z,4.45
2023-03-05T07:01:01.119Z,3.88
2023-03-05T07:03:27.567Z,3.83
2023-03-05T07:05:54.020Z,4.10
2023-03-05T07:08:20.504Z,4.53
2023-03-05T07:10:46.924Z,5.72
2023-03-05T07:13:13.374Z,4.65
2023-03-05T07:15:41.218Z,4.28
2023-03-05T07:18:08.269Z,4.13
2023-03-05T07:20:37.982Z,4.38
2023-03-05T07:23:04.654Z,4.07
2023-03-05T07:25:32.138Z,6.55
2023-03-05T07:27:58.857Z,4.00
2023-03-05T07:30:25.363Z,4.80
2023-03-05T07:32:51.868Z,4.50
2023-03-05T07:35:18.409Z,4.90
2023-03-05T07:37:45.050Z,3.97
2023-03-05T07:40:11.872Z,4.38
2023-03-05T07:45:05.232Z,4.53
2023-03-05T07:47:31.934Z,5.32
2023-03-05T07:49:58.391Z,4.85
2023-03-05T07:52:24.903Z,4.45
2023-03-05T07:54:51.358Z,4.55
2023-03-05T07:57:17.907Z,4.28
2023-03-05T07:59:44.366Z,3.72
2023-03-05T08:02:13.108Z,4.30
2023-03-05T08:04:40.579Z,3.97
2023-03-05T08:07:07.059Z,4.00
2023-03-05T08:09:33.766Z,4.85
2023-03-05T08:12:00.306Z,3.72
2023-03-05T08:14:26.973Z,4.07
2023-03-05T08:16:53.486Z,4.30
2023-03-05T08:19:20.799Z,4.32
2023-03-05T08:21:47.410Z,4.57
2023-03-05T08:24:14.832Z,4.00
2023-03-05T08:26:42.240Z,4.13
2023-03-05T08:29:10.392Z,3.83
2023-03-05T08:31:37.414Z,3.40
2023-03-05T08:34:05.302Z,3.75
2023-03-05T08:36:32.129Z,3.35
2023-03-05T08:41:26.356Z,3.25
2023-03-05T08:43:52.796Z,3.20
2023-03-05T08:46:20.047Z,3.55
2023-03-05T08:48:46.541Z,3.15
2023-03-05T08:51:15.469Z,3.85
2023-03-05T08:53:43.519Z,3.42
2023-03-05T08:56:10.377Z,3.90
2023-03-05T08:58:37.469Z,3.38
2023-03-05T09:01:07.833Z,3.47
2023-03-05T09:03:34.575Z,3.15
2023-03-05T09:08:31.566Z,3.83
2023-03-05T09:13:27.835Z,3.13
2023-03-05T09:15:56.352Z,3.65
2023-03-05T09:18:23.080Z,3.75
2023-03-05T09:23:21.574Z,3.50
2023-03-05T09:25:48.079Z,4.10
2023-03-05T09:28:14.766Z,3.50
2023-03-05T09:30:41.353Z,3.42
2023-03-05T09:33:08.259Z,3.50
2023-03-05T09:35:36.786Z,3.63
2023-03-05T09:38:04.487Z,3.85
2023-03-05T09:40:43.846Z,3.95
2023-03-05T09:43:25.353Z,3.50
2023-03-05T09:46:18.685Z,3.60
2023-03-05T09:48:51.663Z,3.70
2023-03-05T09:51:24.805Z,3.90
2023-03-05T09:54:07.347Z,3.60
2023-03-05T09:56:45.176Z,3.78
2023-03-05T09:59:21.378Z,3.50
2023-03-05T10:01:50.461Z,3.70
2023-03-05T10:04:48.806Z,4.00
2023-03-05T10:07:27.395Z,3.40
2023-03-05T10:10:14.225Z,3.35
2023-03-05T10:12:43.865Z,3.78
2023-03-05T10:15:16.307Z,3.70
2023-03-05T10:18:00.904Z,3.63
2023-03-05T10:20:35.512Z,3.65
2023-03-05T10:23:07.821Z,3.72
2023-03-05T10:25:43.891Z,3.25
2023-03-05T10:28:18.070Z,3.53
2023-03-05T10:31:09.218Z,3.10
2023-03-05T10:33:43.515Z,3.17
2023-03-05T10:36:31.112Z,3.63
2023-03-05T10:39:15.479Z,3.22
2023-03-05T10:42:14.016Z,3.65
2023-03-05T10:47:39.377Z,3.45
2023-03-05T10:50:17.832Z,3.30
2023-03-05T10:52:48.666Z,3.40
2023-03-05T10:55:21.113Z,3.13
2023-03-05T10:57:48.414Z,3.13
2023-03-05T11:00:26.629Z,3.20
2023-03-05T11:03:05.275Z,3.55
2023-03-05T11:06:00.543Z,3.38
2023-03-05T11:08:30.595Z,3.00
2023-03-05T11:11:25.379Z,3.42
2023-03-05T11:14:01.344Z,3.45
2023-03-05T11:16:33.846Z,2.88
2023-03-05T11:19:34.588Z,3.03
2023-03-05T11:22:27.518Z,3.22
2023-03-05T11:25:14.058Z,3.10
2023-03-05T11:28:01.766Z,3.10
2023-03-05T11:30:34.368Z,3.00
2023-03-05T11:33:22.700Z,3.10
2023-03-05T11:35:51.697Z,3.30
2023-03-05T11:38:25.853Z,3.33
2023-03-05T11:40:55.086Z,3.28
2023-03-05T11:43:24.302Z,3.88
2023-03-05T11:46:01.603Z,3.90
2023-03-05T11:51:07.721Z,3.42
2023-03-05T11:53:37.114Z,3.47
2023-03-05T11:56:29.215Z,3.17
2023-03-05T11:59:04.541Z,3.05
2023-03-05T12:01:34.930Z,3.63
2023-03-05T12:04:02.074Z,2.92
2023-03-05T12:06:43.446Z,3.35
2023-03-05T12:09:16.243Z,3.10
2023-03-05T12:11:43.358Z,3.00
2023-03-05T12:14:20.787Z,3.92
2023-03-05T12:19:32.895Z,3.70
2023-03-05T12:22:00.263Z,3.38
2023-03-05T12:24:28.411Z,3.35
2023-03-05T12:27:04.041Z,2.90
2023-03-05T12:29:33.390Z,3.30
2023-03-05T12:32:01.279Z,3.45
2023-03-05T12:34:39.818Z,3.00
2023-03-05T12:37:11.995Z,3.05
2023-03-05T12:39:45.121Z,3.20
2023-03-05T12:42:29.780Z,3.20
2023-03-05T12:45:15.974Z,3.00
2023-03-05T12:47:44.513Z,3.10
2023-03-05T12:50:29.244Z,3.42
2023-03-05T12:53:10.231Z,3.20
2023-03-05T12:56:01.395Z,3.30
2023-03-05T12:58:44.160Z,2.88
2023-03-05T13:01:29.501Z,3.53
2023-03-05T13:04:00.346Z,2.92
2023-03-05T13:06:34.179Z,2.95
2023-03-05T13:09:15.814Z,3.15
2023-03-05T13:11:44.925Z,2.92
2023-03-05T13:14:30.022Z,2.80
2023-03-05T13:16:57.038Z,3.30
2023-03-05T13:19:24.126Z,2.95
2023-03-05T13:22:09.752Z,3.00
2023-03-05T13:24:36.301Z,2.80
2023-03-05T13:27:02.797Z,2.88
2023-03-05T13:29:30.773Z,4.18
2023-03-05T13:32:01.576Z,4.15
2023-03-05T13:34:47.104Z,5.90
2023-03-05T13:37:19.495Z,4.70
2023-03-05T13:39:57.542Z,3.30
2023-03-05T13:42:28.306Z,4.25
2023-03-05T13:45:00.016Z,3.40
2023-03-05T13:47:32.022Z,2.75
2023-03-05T13:50:08.035Z,3.00
2023-03-05T13:52:38.692Z,3.55
2023-03-05T13:55:14.720Z,2.70
2023-03-05T13:57:44.745Z,2.60
2023-03-05T14:00:26.399Z,2.50
2023-03-05T14:02:54.913Z,2.60
2023-03-05T14:05:21.906Z,2.70
2023-03-05T14:07:52.500Z,2.63
2023-03-05T14:10:36.062Z,2.45
2023-03-05T14:13:13.322Z,2.60
2023-03-05T14:15:40.234Z,2.50
2023-03-05T14:18:12.418Z,2.70
2023-03-05T14:20:41.293Z,2.78
2023-03-05T14:23:35.433Z,2.60
2023-03-05T14:26:19.309Z,2.80
2023-03-05T14:28:53.006Z,3.45
2023-03-05T14:31:20.735Z,2.70
2023-03-05T14:33:48.387Z,2.72
2023-03-05T14:36:20.594Z,2.80
2023-03-05T14:38:47.059Z,2.70
2023-03-05T14:41:21.217Z,2.60
2023-03-05T14:43:47.651Z,3.08
2023-03-05T14:46:14.258Z,3.15
2023-03-05T14:48:40.880Z,2.60
2023-03-05T14:51:09.409Z,2.63
2023-03-05T14:53:42.857Z,2.58
2023-03-05T14:56:29.720Z,2.67
2023-03-05T14:58:57.748Z,2.70
2023-03-05T15:01:25.358Z,2.75
2023-03-05T15:03:52.279Z,2.70
2023-03-05T15:06:29.399Z,2.90
2023-03-05T15:08:55.878Z,2.58
2023-03-05T15:11:23.156Z,2.72
2023-03-05T15:13:52.427Z,2.97
2023-03-05T15:16:20.301Z,2.60
2023-03-05T15:18:47.365Z,2.90
2023-03-05T15:21:14.049Z,2.60
2023-03-05T15:23:40.796Z,3.10
2023-03-05T15:28:39.110Z,2.97
2023-03-05T15:31:06.834Z,3.03
2023-03-05T15:33:33.757Z,3.10
2023-03-05T15:36:00.255Z,2.70
2023-03-05T15:38:26.954Z,4.15
2023-03-05T15:40:53.470Z,3.22
2023-03-05T15:43:20.424Z,3.20
2023-03-05T15:45:47.802Z,3.13
2023-03-05T15:48:14.671Z,4.18
2023-03-05T15:50:43.380Z,2.80
2023-03-05T15:53:12.754Z,2.90
2023-03-05T15:55:40.424Z,2.70
2023-03-05T15:58:07.415Z,3.05
2023-03-05T16:00:36.682Z,3.40
2023-03-05T16:03:04.095Z,2.95
2023-03-05T16:05:30.619Z,3.08
2023-03-05T16:07:57.354Z,3.05
2023-03-05T16:15:40.888Z,3.13
2023-03-05T16:18:11.542Z,3.00
2023-03-05T16:20:38.207Z,3.25
2023-03-05T16:23:05.794Z,3.13
2023-03-05T16:25:32.513Z,3.00
2023-03-05T16:27:59.066Z,3.05
2023-03-05T16:30:25.572Z,3.33
2023-03-05T16:32:53.737Z,3.05
2023-03-05T16:35:23.175Z,3.00
2023-03-05T16:37:49.770Z,3.65
2023-03-05T16:42:51.950Z,4.60
2023-03-05T16:45:18.714Z,3.53
2023-03-05T16:47:45.325Z,3.17
2023-03-05T16:50:12.502Z,3.58
2023-03-05T16:52:39.372Z,3.10
2023-03-05T16:55:06.476Z,3.00
2023-03-05T16:57:32.952Z,3.10
2023-03-05T17:00:01.338Z,3.50
2023-03-05T17:02:27.997Z,2.92
2023-03-05T17:04:56.082Z,3.33
2023-03-05T17:07:22.784Z,3.15
2023-03-05T17:09:50.503Z,3.55
2023-03-05T17:12:17.066Z,3.42
2023-03-05T17:14:43.622Z,3.20
2023-03-05T17:17:10.481Z,3.33
2023-03-05T17:19:37.135Z,3.25
2023-03-05T17:22:04.887Z,3.22
2023-03-05T17:24:33.021Z,4.20
2023-03-05T17:27:00.555Z,3.83
2023-03-05T17:29:27.169Z,7.32
2023-03-05T22:41:47.431Z,6.65
2023-03-05T22:44:22.660Z,7.05
2023-03-05T22:46:50.769Z,5.10
2023-03-05T22:51:43.646Z,6.53
2023-03-05T22:54:10.217Z,5.47
2023-03-05T22:56:36.730Z,5.53
2023-03-05T22:59:03.267Z,9.65
2023-03-05T23:01:29.688Z,5.75
2023-03-05T23:04:49.094Z,4.65
2023-03-05T23:07:18.122Z,5.75
2023-03-05T23:09:45.282Z,4.05
2023-03-05T23:12:12.633Z,5.43
2023-03-05T23:14:39.148Z,4.43
2023-03-05T23:17:05.702Z,4.97
2023-03-05T23:19:39.505Z,4.75
2023-03-05T23:22:08.583Z,4.80
2023-03-05T23:24:35.157Z,4.28
2023-03-05T23:27:05.292Z,6.45
2023-03-05T23:29:52.151Z,4.85
2023-03-05T23:32:18.659Z,4.18
2023-03-05T23:34:45.150Z,4.20
2023-03-05T23:37:11.632Z,4.22
2023-03-05T23:39:38.101Z,4.05
2023-03-05T23:42:04.655Z,4.00
2023-03-05T23:44:31.075Z,4.68
2023-03-05T23:46:57.546Z,4.25
2023-03-05T23:49:24.060Z,4.10
2023-03-05T23:51:50.517Z,4.20
2023-03-05T23:54:16.966Z,5.82
2023-03-05T23:56:43.423Z,4.10
2023-03-05T23:59:09.876Z,5.57
